Etusivu
METAR-TAF:

METAR-TAF

Lentoasemat :

Guaymas, Meksiko

Leveyspiiri: 27-58N, Pituuspiiri: 110-56W, korkeus merenpinnasta: 27 m

Tämänhetkinen sää

Tämä raportti tehtiin 44 minuuttia sitten, kello 20.40 UTC
Tuuli 10 kn lännestä
Lämpötila 20°C
Kosteus 78%
Ilmanpaine 1012 hPa
Näkyvyys: 16.1 km
Pilvistä 18000 ft:n korkeudessa

METAR: MMGM 242040Z 27010KT 10SM OVC180 20/16 A2987 RMK 8/01/

Aika: 14:24 (21:24 UTC)

Sääennuste

Tämä raportti tehtiin 4 tuntia ja 46 minuuttia sitten, kello 16.38 UTC
Ennuste voimassa 24. päivästä klo 18 UTC - 25. päivään klo 18 UTC
Tuuli 10 kn lännestä/lounaasta
Näkyvyys: 10 km
Hajanaisia pilviä 20000 ft:n korkeudessa
From 25. päivästä klo 0300 UTC
Tuuli kn pohjoisesta
Näkyvyys: 10 km
Hajonneita pilviä 25000 ft:n korkeudessa

TAF: MMGM 241638Z 2418/2518 25010KT P6SM SCT200 FM250300 00000KT P6SM BKN250

Säähavainnot ja -ennusteet yli 4000 lentoasemalta (METAR- ja TAF-raportit).

Käytössä olevat sääasemat on merkitty karttaan keltaisilla ja punaisilla pisteillä.

Aseta hiiri pisteen päälle nähdäksesi sääaseman nimen.

Klikkaa sitten nähdäksesi säähavainnot ja -ennusteet.

Kartan vaihtaminen: klikkaa mustalla rastilla varustettuja vihreitä pisteitä, niin voit zoomata sisään; viivalla varustettua vihreää pistettä, niin voit zoomata ulos tai vihreitä nuolia, niin pääset viereisille kartoille.


METAR-TAF: